createdAt,value
2022-07-29T17:27:42.811Z,43.41
2022-07-29T17:32:47.331Z,43.75
2022-07-29T17:37:50.654Z,44.54
2022-07-29T17:42:54.086Z,44.86
2022-07-29T17:47:57.508Z,45.35
2022-07-29T17:53:00.787Z,48.46
2022-07-29T17:58:04.159Z,50.75
2022-07-29T18:03:07.703Z,52.22
2022-07-29T18:08:11.287Z,53.25
2022-07-29T18:13:24.229Z,54.36
2022-07-29T18:18:27.631Z,55.39
2022-07-29T18:23:38.918Z,55.76
2022-07-29T18:28:48.218Z,56.46
2022-07-29T18:33:56.154Z,56.93
2022-07-29T18:39:04.180Z,57.56
2022-07-29T18:44:08.391Z,58.02
2022-07-29T18:49:13.027Z,58.09
2022-07-29T18:54:17.699Z,56.90
2022-07-29T18:59:22.417Z,58.77
2022-07-29T19:04:25.771Z,60.50
2022-07-29T19:09:30.000Z,60.18
2022-07-29T19:14:33.204Z,61.12
2022-07-29T19:19:36.681Z,61.18
2022-07-29T19:24:41.287Z,61.18
2022-07-29T19:29:44.638Z,61.96
2022-07-29T19:35:07.800Z,61.95
2022-07-29T19:40:13.088Z,62.47
2022-07-29T19:45:26.269Z,62.54
2022-07-29T19:50:33.293Z,62.88
2022-07-29T19:55:38.030Z,63.51
2022-07-29T20:00:42.223Z,63.73
2022-07-29T20:05:48.066Z,64.39
2022-07-29T20:10:52.130Z,65.53
2022-07-29T20:15:55.576Z,65.14
2022-07-29T20:21:00.659Z,66.68
2022-07-29T20:26:09.499Z,67.53
2022-07-29T20:31:15.893Z,68.76
2022-07-29T20:36:19.322Z,68.42
2022-07-29T20:41:23.257Z,68.60
2022-07-29T20:46:36.059Z,69.49
2022-07-29T20:51:43.710Z,70.59
2022-07-29T20:57:11.748Z,71.61
2022-07-29T21:02:37.837Z,69.84
2022-07-29T21:07:42.375Z,70.32
2022-07-29T21:12:46.729Z,70.19
2022-07-29T21:17:52.840Z,69.43
2022-07-29T21:22:56.381Z,68.56
2022-07-29T21:28:32.842Z,69.59
2022-07-29T21:33:57.459Z,68.92
2022-07-29T21:39:08.278Z,69.45
2022-07-29T21:44:11.702Z,70.43
2022-07-29T21:49:15.224Z,70.67
2022-07-29T21:54:19.268Z,71.11
2022-07-29T21:59:26.366Z,69.03
2022-07-29T22:04:30.425Z,68.78
2022-07-29T22:09:35.150Z,69.33
2022-07-29T22:14:47.022Z,68.90
2022-07-29T22:20:10.178Z,69.54
2022-07-29T22:25:13.535Z,70.54
2022-07-29T22:30:17.218Z,69.40
2022-07-29T22:35:21.093Z,68.99
2022-07-29T22:40:41.051Z,68.68
2022-07-29T22:45:52.928Z,68.08
2022-07-29T22:51:02.961Z,67.34
2022-07-29T22:56:07.962Z,66.56
2022-07-29T23:01:38.698Z,65.80
2022-07-29T23:06:57.089Z,65.07
2022-07-29T23:12:01.880Z,64.62
2022-07-29T23:17:06.233Z,64.30
2022-07-29T23:22:09.579Z,64.07
2022-07-29T23:27:12.874Z,63.90
2022-07-29T23:32:16.055Z,63.80
2022-07-29T23:37:19.308Z,63.72
2022-07-29T23:42:22.798Z,63.63
2022-07-29T23:47:26.310Z,63.60
2022-07-29T23:52:29.578Z,63.47
2022-07-29T23:57:32.899Z,63.43
